sensor_id;sensor_type;location;lat;lon;timestamp;P1;durP1;ratioP1;P2;durP2;ratioP2
74908;SDS011;63468;52.058;4.824;2023-02-08T00:01:17;39.60;;;16.55;;
74908;SDS011;63468;52.058;4.824;2023-02-08T00:03:47;34.10;;;15.98;;
74908;SDS011;63468;52.058;4.824;2023-02-08T00:06:13;29.08;;;13.77;;
74908;SDS011;63468;52.058;4.824;2023-02-08T00:08:38;38.65;;;16.25;;
74908;SDS011;63468;52.058;4.824;2023-02-08T00:11:04;36.47;;;16.10;;
74908;SDS011;63468;52.058;4.824;2023-02-08T00:13:31;33.10;;;17.50;;
74908;SDS011;63468;52.058;4.824;2023-02-08T00:15:56;36.28;;;16.15;;
74908;SDS011;63468;52.058;4.824;2023-02-08T00:18:22;32.65;;;15.60;;
74908;SDS011;63468;52.058;4.824;2023-02-08T00:20:47;38.55;;;17.42;;
74908;SDS011;63468;52.058;4.824;2023-02-08T00:23:13;36.35;;;16.27;;
74908;SDS011;63468;52.058;4.824;2023-02-08T00:25:39;34.60;;;15.32;;
74908;SDS011;63468;52.058;4.824;2023-02-08T00:28:06;32.33;;;14.05;;
74908;SDS011;63468;52.058;4.824;2023-02-08T00:30:32;33.33;;;15.93;;
74908;SDS011;63468;52.058;4.824;2023-02-08T00:32:59;30.70;;;14.38;;
74908;SDS011;63468;52.058;4.824;2023-02-08T00:35:25;33.30;;;15.93;;
74908;SDS011;63468;52.058;4.824;2023-02-08T00:37:50;35.88;;;14.30;;
74908;SDS011;63468;52.058;4.824;2023-02-08T00:40:16;35.95;;;16.00;;
74908;SDS011;63468;52.058;4.824;2023-02-08T00:42:41;35.40;;;15.02;;
74908;SDS011;63468;52.058;4.824;2023-02-08T00:45:07;28.30;;;14.07;;
74908;SDS011;63468;52.058;4.824;2023-02-08T00:47:32;27.27;;;14.88;;
74908;SDS011;63468;52.058;4.824;2023-02-08T00:49:58;34.40;;;14.82;;
74908;SDS011;63468;52.058;4.824;2023-02-08T00:52:23;28.17;;;15.45;;
74908;SDS011;63468;52.058;4.824;2023-02-08T00:54:49;36.10;;;14.85;;
74908;SDS011;63468;52.058;4.824;2023-02-08T00:57:14;30.23;;;14.10;;
74908;SDS011;63468;52.058;4.824;2023-02-08T00:59:39;30.08;;;14.85;;
74908;SDS011;63468;52.058;4.824;2023-02-08T01:02:05;33.03;;;14.60;;
74908;SDS011;63468;52.058;4.824;2023-02-08T01:04:30;27.55;;;14.07;;
74908;SDS011;63468;52.058;4.824;2023-02-08T01:06:55;33.25;;;15.75;;
74908;SDS011;63468;52.058;4.824;2023-02-08T01:09:21;27.08;;;14.05;;
74908;SDS011;63468;52.058;4.824;2023-02-08T01:11:46;28.98;;;13.93;;
74908;SDS011;63468;52.058;4.824;2023-02-08T01:14:11;31.35;;;13.90;;
74908;SDS011;63468;52.058;4.824;2023-02-08T01:16:37;31.38;;;14.80;;
74908;SDS011;63468;52.058;4.824;2023-02-08T01:19:03;31.48;;;14.35;;
74908;SDS011;63468;52.058;4.824;2023-02-08T01:21:30;30.75;;;15.20;;
74908;SDS011;63468;52.058;4.824;2023-02-08T01:23:56;28.45;;;15.20;;
74908;SDS011;63468;52.058;4.824;2023-02-08T01:26:22;30.05;;;13.80;;
74908;SDS011;63468;52.058;4.824;2023-02-08T01:28:48;34.85;;;14.57;;
74908;SDS011;63468;52.058;4.824;2023-02-08T01:31:18;32.30;;;14.63;;
74908;SDS011;63468;52.058;4.824;2023-02-08T01:33:46;34.25;;;14.63;;
74908;SDS011;63468;52.058;4.824;2023-02-08T01:36:11;32.80;;;14.60;;
74908;SDS011;63468;52.058;4.824;2023-02-08T01:38:37;39.28;;;16.00;;
74908;SDS011;63468;52.058;4.824;2023-02-08T01:41:03;27.48;;;15.13;;
74908;SDS011;63468;52.058;4.824;2023-02-08T01:43:31;33.33;;;16.67;;
74908;SDS011;63468;52.058;4.824;2023-02-08T01:45:58;30.23;;;14.63;;
74908;SDS011;63468;52.058;4.824;2023-02-08T01:51:10;42.03;;;16.85;;
74908;SDS011;63468;52.058;4.824;2023-02-08T01:53:39;33.63;;;15.15;;
74908;SDS011;63468;52.058;4.824;2023-02-08T01:56:06;30.02;;;13.93;;
74908;SDS011;63468;52.058;4.824;2023-02-08T01:58:35;39.03;;;15.27;;
74908;SDS011;63468;52.058;4.824;2023-02-08T02:01:03;36.15;;;15.10;;
74908;SDS011;63468;52.058;4.824;2023-02-08T02:03:29;28.67;;;14.45;;
74908;SDS011;63468;52.058;4.824;2023-02-08T02:05:56;34.22;;;15.63;;
74908;SDS011;63468;52.058;4.824;2023-02-08T02:08:25;30.60;;;16.23;;
74908;SDS011;63468;52.058;4.824;2023-02-08T02:10:51;34.17;;;15.13;;
74908;SDS011;63468;52.058;4.824;2023-02-08T02:13:17;35.50;;;17.75;;
74908;SDS011;63468;52.058;4.824;2023-02-08T02:15:45;34.55;;;14.45;;
74908;SDS011;63468;52.058;4.824;2023-02-08T02:18:11;26.88;;;13.63;;
74908;SDS011;63468;52.058;4.824;2023-02-08T02:20:47;33.58;;;15.68;;
74908;SDS011;63468;52.058;4.824;2023-02-08T02:31:23;28.25;;;14.40;;
74908;SDS011;63468;52.058;4.824;2023-02-08T02:34:13;27.67;;;13.40;;
74908;SDS011;63468;52.058;4.824;2023-02-08T02:36:53;28.95;;;13.60;;
74908;SDS011;63468;52.058;4.824;2023-02-08T02:39:45;28.55;;;14.52;;
74908;SDS011;63468;52.058;4.824;2023-02-08T02:47:48;22.85;;;12.82;;
74908;SDS011;63468;52.058;4.824;2023-02-08T02:53:03;31.13;;;15.73;;
74908;SDS011;63468;52.058;4.824;2023-02-08T02:55:35;30.23;;;15.48;;
74908;SDS011;63468;52.058;4.824;2023-02-08T02:58:04;30.80;;;14.10;;
74908;SDS011;63468;52.058;4.824;2023-02-08T03:00:30;28.20;;;14.07;;
74908;SDS011;63468;52.058;4.824;2023-02-08T03:02:57;25.83;;;13.60;;
74908;SDS011;63468;52.058;4.824;2023-02-08T03:05:22;29.15;;;14.18;;
74908;SDS011;63468;52.058;4.824;2023-02-08T03:18:57;28.50;;;15.00;;
74908;SDS011;63468;52.058;4.824;2023-02-08T03:27:33;25.40;;;14.20;;
74908;SDS011;63468;52.058;4.824;2023-02-08T03:30:07;31.67;;;15.07;;
74908;SDS011;63468;52.058;4.824;2023-02-08T03:32:42;26.48;;;14.00;;
74908;SDS011;63468;52.058;4.824;2023-02-08T03:35:17;28.60;;;14.95;;
74908;SDS011;63468;52.058;4.824;2023-02-08T03:40:21;32.28;;;14.32;;
74908;SDS011;63468;52.058;4.824;2023-02-08T03:42:49;28.67;;;14.40;;
74908;SDS011;63468;52.058;4.824;2023-02-08T03:45:20;30.58;;;14.65;;
74908;SDS011;63468;52.058;4.824;2023-02-08T03:47:48;29.20;;;14.48;;
74908;SDS011;63468;52.058;4.824;2023-02-08T03:50:14;34.25;;;14.50;;
74908;SDS011;63468;52.058;4.824;2023-02-08T03:52:43;28.30;;;14.38;;
74908;SDS011;63468;52.058;4.824;2023-02-08T03:55:11;29.33;;;15.93;;
74908;SDS011;63468;52.058;4.824;2023-02-08T03:57:43;29.23;;;13.70;;
74908;SDS011;63468;52.058;4.824;2023-02-08T04:00:13;34.75;;;13.40;;
74908;SDS011;63468;52.058;4.824;2023-02-08T04:02:48;29.98;;;14.18;;
74908;SDS011;63468;52.058;4.824;2023-02-08T04:05:19;29.33;;;12.77;;
74908;SDS011;63468;52.058;4.824;2023-02-08T04:07:45;30.77;;;15.18;;
74908;SDS011;63468;52.058;4.824;2023-02-08T04:10:11;32.53;;;14.82;;
74908;SDS011;63468;52.058;4.824;2023-02-08T04:12:36;29.83;;;15.10;;
74908;SDS011;63468;52.058;4.824;2023-02-08T04:15:01;28.25;;;14.57;;
74908;SDS011;63468;52.058;4.824;2023-02-08T04:17:27;35.70;;;16.35;;
74908;SDS011;63468;52.058;4.824;2023-02-08T04:19:52;27.75;;;14.50;;
74908;SDS011;63468;52.058;4.824;2023-02-08T04:22:17;28.23;;;13.48;;
74908;SDS011;63468;52.058;4.824;2023-02-08T04:24:43;25.30;;;13.88;;
74908;SDS011;63468;52.058;4.824;2023-02-08T04:27:08;31.27;;;15.25;;
74908;SDS011;63468;52.058;4.824;2023-02-08T04:29:33;30.77;;;16.10;;
74908;SDS011;63468;52.058;4.824;2023-02-08T04:31:58;27.27;;;13.63;;
74908;SDS011;63468;52.058;4.824;2023-02-08T04:34:24;27.38;;;14.15;;
74908;SDS011;63468;52.058;4.824;2023-02-08T04:36:49;32.22;;;14.45;;
74908;SDS011;63468;52.058;4.824;2023-02-08T04:39:15;29.40;;;12.85;;
74908;SDS011;63468;52.058;4.824;2023-02-08T04:41:40;26.10;;;13.07;;
74908;SDS011;63468;52.058;4.824;2023-02-08T04:44:05;29.35;;;13.95;;
74908;SDS011;63468;52.058;4.824;2023-02-08T04:46:31;27.65;;;14.23;;
74908;SDS011;63468;52.058;4.824;2023-02-08T04:48:56;25.33;;;13.82;;
74908;SDS011;63468;52.058;4.824;2023-02-08T04:51:21;26.90;;;13.23;;
74908;SDS011;63468;52.058;4.824;2023-02-08T04:53:46;26.42;;;13.60;;
74908;SDS011;63468;52.058;4.824;2023-02-08T04:56:12;29.63;;;14.25;;
74908;SDS011;63468;52.058;4.824;2023-02-08T04:58:38;26.08;;;12.35;;
74908;SDS011;63468;52.058;4.824;2023-02-08T05:01:07;31.92;;;14.15;;
74908;SDS011;63468;52.058;4.824;2023-02-08T05:06:00;23.38;;;11.95;;
74908;SDS011;63468;52.058;4.824;2023-02-08T05:08:26;23.65;;;13.18;;
74908;SDS011;63468;52.058;4.824;2023-02-08T05:10:52;28.85;;;13.13;;
74908;SDS011;63468;52.058;4.824;2023-02-08T05:13:17;23.98;;;12.77;;
74908;SDS011;63468;52.058;4.824;2023-02-08T05:15:42;28.83;;;13.95;;
74908;SDS011;63468;52.058;4.824;2023-02-08T05:18:08;32.33;;;13.32;;
74908;SDS011;63468;52.058;4.824;2023-02-08T05:20:33;25.88;;;13.23;;
74908;SDS011;63468;52.058;4.824;2023-02-08T05:22:58;23.48;;;12.65;;
74908;SDS011;63468;52.058;4.824;2023-02-08T05:25:24;25.35;;;14.50;;
74908;SDS011;63468;52.058;4.824;2023-02-08T05:27:49;33.28;;;14.93;;
74908;SDS011;63468;52.058;4.824;2023-02-08T05:30:15;27.08;;;14.07;;
74908;SDS011;63468;52.058;4.824;2023-02-08T05:32:40;26.80;;;13.18;;
74908;SDS011;63468;52.058;4.824;2023-02-08T05:35:06;25.92;;;12.60;;
74908;SDS011;63468;52.058;4.824;2023-02-08T05:37:31;28.38;;;12.63;;
74908;SDS011;63468;52.058;4.824;2023-02-08T05:39:57;29.45;;;15.32;;
74908;SDS011;63468;52.058;4.824;2023-02-08T05:42:22;27.23;;;12.90;;
74908;SDS011;63468;52.058;4.824;2023-02-08T05:44:47;27.55;;;12.88;;
74908;SDS011;63468;52.058;4.824;2023-02-08T05:47:13;31.27;;;13.95;;
74908;SDS011;63468;52.058;4.824;2023-02-08T05:49:38;27.08;;;13.43;;
74908;SDS011;63468;52.058;4.824;2023-02-08T05:52:03;29.48;;;13.63;;
74908;SDS011;63468;52.058;4.824;2023-02-08T05:54:29;29.15;;;13.90;;
74908;SDS011;63468;52.058;4.824;2023-02-08T05:56:54;27.02;;;13.35;;
74908;SDS011;63468;52.058;4.824;2023-02-08T05:59:19;32.42;;;14.80;;
74908;SDS011;63468;52.058;4.824;2023-02-08T06:01:44;30.83;;;13.95;;
74908;SDS011;63468;52.058;4.824;2023-02-08T06:04:10;29.52;;;14.82;;
74908;SDS011;63468;52.058;4.824;2023-02-08T06:06:35;24.38;;;13.45;;
74908;SDS011;63468;52.058;4.824;2023-02-08T06:09:00;39.45;;;15.98;;
74908;SDS011;63468;52.058;4.824;2023-02-08T06:11:26;29.70;;;14.70;;
74908;SDS011;63468;52.058;4.824;2023-02-08T06:13:51;30.83;;;16.77;;
74908;SDS011;63468;52.058;4.824;2023-02-08T06:16:17;36.17;;;17.42;;
74908;SDS011;63468;52.058;4.824;2023-02-08T06:18:42;30.85;;;15.90;;
74908;SDS011;63468;52.058;4.824;2023-02-08T06:21:07;26.55;;;14.55;;
74908;SDS011;63468;52.058;4.824;2023-02-08T06:23:33;29.05;;;14.05;;
74908;SDS011;63468;52.058;4.824;2023-02-08T06:25:59;33.03;;;15.48;;
74908;SDS011;63468;52.058;4.824;2023-02-08T06:28:24;28.45;;;15.25;;
74908;SDS011;63468;52.058;4.824;2023-02-08T06:30:50;31.98;;;15.05;;
74908;SDS011;63468;52.058;4.824;2023-02-08T06:33:16;26.13;;;15.20;;
74908;SDS011;63468;52.058;4.824;2023-02-08T06:35:45;26.08;;;14.27;;
74908;SDS011;63468;52.058;4.824;2023-02-08T06:38:11;24.42;;;13.90;;
74908;SDS011;63468;52.058;4.824;2023-02-08T06:40:37;30.30;;;14.35;;
74908;SDS011;63468;52.058;4.824;2023-02-08T06:43:02;28.52;;;13.05;;
74908;SDS011;63468;52.058;4.824;2023-02-08T06:45:28;23.77;;;12.45;;
74908;SDS011;63468;52.058;4.824;2023-02-08T06:47:53;30.90;;;13.77;;
74908;SDS011;63468;52.058;4.824;2023-02-08T06:50:18;28.42;;;14.38;;
74908;SDS011;63468;52.058;4.824;2023-02-08T06:52:44;30.52;;;13.65;;
74908;SDS011;63468;52.058;4.824;2023-02-08T06:55:09;32.63;;;14.27;;
74908;SDS011;63468;52.058;4.824;2023-02-08T06:57:34;29.95;;;13.95;;
74908;SDS011;63468;52.058;4.824;2023-02-08T07:00:00;26.33;;;13.68;;
74908;SDS011;63468;52.058;4.824;2023-02-08T07:02:25;29.63;;;13.85;;
74908;SDS011;63468;52.058;4.824;2023-02-08T07:04:51;22.65;;;11.60;;
74908;SDS011;63468;52.058;4.824;2023-02-08T07:07:16;28.23;;;12.68;;
74908;SDS011;63468;52.058;4.824;2023-02-08T07:09:43;28.38;;;14.23;;
74908;SDS011;63468;52.058;4.824;2023-02-08T07:12:08;28.70;;;13.43;;
74908;SDS011;63468;52.058;4.824;2023-02-08T07:14:35;24.00;;;13.00;;
74908;SDS011;63468;52.058;4.824;2023-02-08T07:17:01;25.88;;;12.98;;
74908;SDS011;63468;52.058;4.824;2023-02-08T07:19:27;33.65;;;13.10;;
74908;SDS011;63468;52.058;4.824;2023-02-08T07:21:53;27.38;;;14.07;;
74908;SDS011;63468;52.058;4.824;2023-02-08T07:24:18;31.05;;;14.32;;
74908;SDS011;63468;52.058;4.824;2023-02-08T07:26:44;27.08;;;13.38;;
74908;SDS011;63468;52.058;4.824;2023-02-08T07:29:09;31.50;;;12.00;;
74908;SDS011;63468;52.058;4.824;2023-02-08T07:31:34;30.88;;;14.48;;
74908;SDS011;63468;52.058;4.824;2023-02-08T07:34:00;26.65;;;13.23;;
74908;SDS011;63468;52.058;4.824;2023-02-08T07:36:25;28.98;;;16.02;;
74908;SDS011;63468;52.058;4.824;2023-02-08T07:38:50;30.88;;;14.18;;
74908;SDS011;63468;52.058;4.824;2023-02-08T07:41:16;27.92;;;13.65;;
74908;SDS011;63468;52.058;4.824;2023-02-08T07:43:41;26.70;;;13.27;;
74908;SDS011;63468;52.058;4.824;2023-02-08T07:46:14;26.55;;;13.82;;
74908;SDS011;63468;52.058;4.824;2023-02-08T07:48:41;29.30;;;14.32;;
74908;SDS011;63468;52.058;4.824;2023-02-08T07:51:07;36.78;;;18.10;;
74908;SDS011;63468;52.058;4.824;2023-02-08T07:53:33;39.55;;;16.48;;
74908;SDS011;63468;52.058;4.824;2023-02-08T07:55:58;27.50;;;13.85;;
74908;SDS011;63468;52.058;4.824;2023-02-08T07:58:24;38.38;;;15.68;;
74908;SDS011;63468;52.058;4.824;2023-02-08T08:00:49;30.40;;;14.00;;
74908;SDS011;63468;52.058;4.824;2023-02-08T08:03:15;29.92;;;14.82;;
74908;SDS011;63468;52.058;4.824;2023-02-08T08:05:40;31.58;;;14.02;;
74908;SDS011;63468;52.058;4.824;2023-02-08T08:08:07;26.30;;;14.77;;
74908;SDS011;63468;52.058;4.824;2023-02-08T08:10:33;31.85;;;13.27;;
74908;SDS011;63468;52.058;4.824;2023-02-08T08:12:58;28.02;;;14.65;;
74908;SDS011;63468;52.058;4.824;2023-02-08T08:15:23;26.60;;;15.32;;
74908;SDS011;63468;52.058;4.824;2023-02-08T08:17:48;32.47;;;14.95;;
74908;SDS011;63468;52.058;4.824;2023-02-08T08:20:14;37.58;;;18.80;;
74908;SDS011;63468;52.058;4.824;2023-02-08T08:22:39;38.92;;;14.20;;
74908;SDS011;63468;52.058;4.824;2023-02-08T08:25:05;30.05;;;14.68;;
74908;SDS011;63468;52.058;4.824;2023-02-08T08:27:30;31.35;;;14.82;;
74908;SDS011;63468;52.058;4.824;2023-02-08T08:29:56;24.38;;;16.35;;
74908;SDS011;63468;52.058;4.824;2023-02-08T08:32:21;30.35;;;14.02;;
74908;SDS011;63468;52.058;4.824;2023-02-08T08:34:46;27.58;;;14.10;;
74908;SDS011;63468;52.058;4.824;2023-02-08T08:37:12;46.05;;;15.90;;
74908;SDS011;63468;52.058;4.824;2023-02-08T08:39:37;32.30;;;13.60;;
74908;SDS011;63468;52.058;4.824;2023-02-08T08:42:02;30.98;;;15.07;;
74908;SDS011;63468;52.058;4.824;2023-02-08T08:44:28;30.02;;;14.48;;
74908;SDS011;63468;52.058;4.824;2023-02-08T08:46:54;28.23;;;14.88;;
74908;SDS011;63468;52.058;4.824;2023-02-08T08:49:21;35.50;;;16.27;;
74908;SDS011;63468;52.058;4.824;2023-02-08T08:51:50;27.83;;;15.40;;
74908;SDS011;63468;52.058;4.824;2023-02-08T08:54:15;34.25;;;16.10;;
74908;SDS011;63468;52.058;4.824;2023-02-08T08:56:41;31.27;;;15.25;;
74908;SDS011;63468;52.058;4.824;2023-02-08T08:59:06;29.52;;;17.17;;
74908;SDS011;63468;52.058;4.824;2023-02-08T09:01:31;31.33;;;16.50;;
74908;SDS011;63468;52.058;4.824;2023-02-08T09:03:57;31.88;;;16.80;;
74908;SDS011;63468;52.058;4.824;2023-02-08T09:06:22;30.02;;;16.10;;
74908;SDS011;63468;52.058;4.824;2023-02-08T09:08:48;32.97;;;16.00;;
74908;SDS011;63468;52.058;4.824;2023-02-08T09:11:14;37.40;;;17.05;;
74908;SDS011;63468;52.058;4.824;2023-02-08T09:13:40;34.58;;;14.88;;
74908;SDS011;63468;52.058;4.824;2023-02-08T09:16:09;34.67;;;17.23;;
74908;SDS011;63468;52.058;4.824;2023-02-08T09:18:37;31.83;;;16.70;;
74908;SDS011;63468;52.058;4.824;2023-02-08T09:21:21;34.35;;;17.10;;
74908;SDS011;63468;52.058;4.824;2023-02-08T09:23:49;35.53;;;17.55;;
74908;SDS011;63468;52.058;4.824;2023-02-08T09:26:15;38.72;;;15.88;;
74908;SDS011;63468;52.058;4.824;2023-02-08T09:28:41;31.45;;;16.15;;
74908;SDS011;63468;52.058;4.824;2023-02-08T09:31:10;32.45;;;16.35;;
74908;SDS011;63468;52.058;4.824;2023-02-08T09:33:37;30.63;;;17.80;;
74908;SDS011;63468;52.058;4.824;2023-02-08T09:36:03;27.65;;;14.80;;
74908;SDS011;63468;52.058;4.824;2023-02-08T09:38:28;35.08;;;16.83;;
74908;SDS011;63468;52.058;4.824;2023-02-08T09:46:19;31.55;;;15.63;;
74908;SDS011;63468;52.058;4.824;2023-02-08T09:48:46;27.52;;;14.68;;
74908;SDS011;63468;52.058;4.824;2023-02-08T09:54:04;33.00;;;16.75;;
74908;SDS011;63468;52.058;4.824;2023-02-08T09:56:33;33.60;;;15.57;;
74908;SDS011;63468;52.058;4.824;2023-02-08T09:59:04;33.28;;;15.75;;
74908;SDS011;63468;52.058;4.824;2023-02-08T10:01:31;28.33;;;15.38;;
74908;SDS011;63468;52.058;4.824;2023-02-08T10:06:29;26.83;;;15.20;;
74908;SDS011;63468;52.058;4.824;2023-02-08T10:08:55;29.33;;;14.15;;
74908;SDS011;63468;52.058;4.824;2023-02-08T10:11:34;33.38;;;15.63;;
74908;SDS011;63468;52.058;4.824;2023-02-08T10:19:56;27.73;;;15.80;;
74908;SDS011;63468;52.058;4.824;2023-02-08T10:31:01;25.35;;;15.05;;
74908;SDS011;63468;52.058;4.824;2023-02-08T10:33:53;29.20;;;14.65;;
74908;SDS011;63468;52.058;4.824;2023-02-08T10:38:50;24.40;;;14.32;;
74908;SDS011;63468;52.058;4.824;2023-02-08T10:41:18;23.42;;;13.32;;
74908;SDS011;63468;52.058;4.824;2023-02-08T10:43:59;26.02;;;14.40;;
74908;SDS011;63468;52.058;4.824;2023-02-08T10:49:16;29.08;;;15.30;;
74908;SDS011;63468;52.058;4.824;2023-02-08T10:51:47;26.65;;;14.38;;
74908;SDS011;63468;52.058;4.824;2023-02-08T10:54:12;30.08;;;14.18;;
74908;SDS011;63468;52.058;4.824;2023-02-08T10:56:43;24.98;;;14.05;;
74908;SDS011;63468;52.058;4.824;2023-02-08T11:01:40;20.95;;;13.13;;
74908;SDS011;63468;52.058;4.824;2023-02-08T11:04:07;24.20;;;14.02;;
74908;SDS011;63468;52.058;4.824;2023-02-08T11:06:35;37.10;;;15.32;;
74908;SDS011;63468;52.058;4.824;2023-02-08T11:09:01;27.33;;;13.82;;
74908;SDS011;63468;52.058;4.824;2023-02-08T11:11:26;23.05;;;13.68;;
74908;SDS011;63468;52.058;4.824;2023-02-08T11:14:05;30.08;;;14.90;;
74908;SDS011;63468;52.058;4.824;2023-02-08T11:16:32;23.77;;;13.50;;
74908;SDS011;63468;52.058;4.824;2023-02-08T11:18:58;25.73;;;14.40;;
74908;SDS011;63468;52.058;4.824;2023-02-08T11:21:33;32.63;;;14.43;;
74908;SDS011;63468;52.058;4.824;2023-02-08T11:24:20;25.00;;;13.10;;
74908;SDS011;63468;52.058;4.824;2023-02-08T11:26:46;22.83;;;12.60;;
74908;SDS011;63468;52.058;4.824;2023-02-08T11:29:15;19.70;;;12.48;;
74908;SDS011;63468;52.058;4.824;2023-02-08T11:34:21;19.15;;;12.15;;
74908;SDS011;63468;52.058;4.824;2023-02-08T11:37:02;27.10;;;13.25;;
74908;SDS011;63468;52.058;4.824;2023-02-08T11:41:55;20.20;;;12.13;;
74908;SDS011;63468;52.058;4.824;2023-02-08T11:44:24;22.90;;;13.27;;
74908;SDS011;63468;52.058;4.824;2023-02-08T11:46:51;25.20;;;12.88;;
74908;SDS011;63468;52.058;4.824;2023-02-08T11:49:21;21.58;;;12.50;;
74908;SDS011;63468;52.058;4.824;2023-02-08T11:51:49;19.58;;;12.13;;
74908;SDS011;63468;52.058;4.824;2023-02-08T11:57:09;24.45;;;13.18;;
74908;SDS011;63468;52.058;4.824;2023-02-08T11:59:36;22.88;;;11.68;;
74908;SDS011;63468;52.058;4.824;2023-02-08T12:04:53;19.75;;;12.30;;
74908;SDS011;63468;52.058;4.824;2023-02-08T12:07:28;22.33;;;12.00;;
74908;SDS011;63468;52.058;4.824;2023-02-08T12:12:47;20.27;;;11.93;;
74908;SDS011;63468;52.058;4.824;2023-02-08T12:15:41;21.73;;;13.35;;
74908;SDS011;63468;52.058;4.824;2023-02-08T12:21:08;19.98;;;12.25;;
74908;SDS011;63468;52.058;4.824;2023-02-08T12:23:40;20.95;;;13.07;;
74908;SDS011;63468;52.058;4.824;2023-02-08T12:26:35;19.65;;;11.25;;
74908;SDS011;63468;52.058;4.824;2023-02-08T12:34:55;24.95;;;13.35;;
74908;SDS011;63468;52.058;4.824;2023-02-08T12:37:29;19.00;;;10.90;;
74908;SDS011;63468;52.058;4.824;2023-02-08T12:40:33;24.70;;;13.10;;
74908;SDS011;63468;52.058;4.824;2023-02-08T12:51:45;20.73;;;12.05;;
74908;SDS011;63468;52.058;4.824;2023-02-08T12:54:20;20.30;;;12.30;;
74908;SDS011;63468;52.058;4.824;2023-02-08T12:56:52;20.40;;;11.70;;
74908;SDS011;63468;52.058;4.824;2023-02-08T13:02:41;19.92;;;12.70;;
74908;SDS011;63468;52.058;4.824;2023-02-08T13:05:17;19.50;;;12.02;;
74908;SDS011;63468;52.058;4.824;2023-02-08T13:07:44;22.23;;;11.98;;
74908;SDS011;63468;52.058;4.824;2023-02-08T13:10:18;21.58;;;13.07;;
74908;SDS011;63468;52.058;4.824;2023-02-08T13:13:06;21.63;;;13.32;;
74908;SDS011;63468;52.058;4.824;2023-02-08T13:15:41;18.83;;;12.50;;
74908;SDS011;63468;52.058;4.824;2023-02-08T13:18:11;24.15;;;12.30;;
74908;SDS011;63468;52.058;4.824;2023-02-08T13:20:40;20.40;;;12.25;;
74908;SDS011;63468;52.058;4.824;2023-02-08T13:23:15;22.95;;;12.38;;
74908;SDS011;63468;52.058;4.824;2023-02-08T13:25:45;17.65;;;11.23;;
74908;SDS011;63468;52.058;4.824;2023-02-08T13:28:22;18.60;;;12.52;;
74908;SDS011;63468;52.058;4.824;2023-02-08T13:30:52;15.15;;;11.73;;
74908;SDS011;63468;52.058;4.824;2023-02-08T13:33:34;17.98;;;12.88;;
74908;SDS011;63468;52.058;4.824;2023-02-08T13:36:02;22.33;;;12.90;;
74908;SDS011;63468;52.058;4.824;2023-02-08T13:38:29;22.17;;;14.02;;
74908;SDS011;63468;52.058;4.824;2023-02-08T13:46:14;20.40;;;13.18;;
74908;SDS011;63468;52.058;4.824;2023-02-08T13:48:45;18.17;;;12.43;;
74908;SDS011;63468;52.058;4.824;2023-02-08T13:59:01;18.58;;;11.73;;
74908;SDS011;63468;52.058;4.824;2023-02-08T14:01:30;17.58;;;12.23;;
74908;SDS011;63468;52.058;4.824;2023-02-08T14:06:36;21.35;;;12.65;;
74908;SDS011;63468;52.058;4.824;2023-02-08T14:09:10;20.20;;;12.60;;
74908;SDS011;63468;52.058;4.824;2023-02-08T14:12:05;21.67;;;13.10;;
74908;SDS011;63468;52.058;4.824;2023-02-08T14:14:36;18.90;;;12.45;;
74908;SDS011;63468;52.058;4.824;2023-02-08T14:19:27;19.08;;;13.15;;
74908;SDS011;63468;52.058;4.824;2023-02-08T14:24:48;20.58;;;13.38;;
74908;SDS011;63468;52.058;4.824;2023-02-08T14:27:29;22.90;;;12.48;;
74908;SDS011;63468;52.058;4.824;2023-02-08T14:32:41;18.85;;;11.75;;
74908;SDS011;63468;52.058;4.824;2023-02-08T14:37:37;20.73;;;12.13;;
74908;SDS011;63468;52.058;4.824;2023-02-08T14:43:00;20.85;;;11.88;;
74908;SDS011;63468;52.058;4.824;2023-02-08T14:45:44;17.70;;;11.80;;
74908;SDS011;63468;52.058;4.824;2023-02-08T14:53:30;20.15;;;12.43;;
74908;SDS011;63468;52.058;4.824;2023-02-08T14:56:13;19.73;;;11.93;;
74908;SDS011;63468;52.058;4.824;2023-02-08T14:58:52;21.10;;;12.77;;
74908;SDS011;63468;52.058;4.824;2023-02-08T15:03:59;19.05;;;11.75;;
74908;SDS011;63468;52.058;4.824;2023-02-08T15:06:39;20.10;;;12.88;;
74908;SDS011;63468;52.058;4.824;2023-02-08T15:11:47;20.80;;;13.18;;
74908;SDS011;63468;52.058;4.824;2023-02-08T15:14:22;19.00;;;11.68;;
74908;SDS011;63468;52.058;4.824;2023-02-08T15:16:47;21.13;;;12.48;;
74908;SDS011;63468;52.058;4.824;2023-02-08T15:19:18;19.42;;;11.27;;
74908;SDS011;63468;52.058;4.824;2023-02-08T15:24:13;20.25;;;11.77;;
74908;SDS011;63468;52.058;4.824;2023-02-08T15:26:47;22.27;;;12.98;;
74908;SDS011;63468;52.058;4.824;2023-02-08T15:29:20;21.25;;;11.93;;
74908;SDS011;63468;52.058;4.824;2023-02-08T15:31:47;19.20;;;11.40;;
74908;SDS011;63468;52.058;4.824;2023-02-08T15:34:13;21.52;;;11.70;;
74908;SDS011;63468;52.058;4.824;2023-02-08T15:36:43;17.17;;;11.07;;
74908;SDS011;63468;52.058;4.824;2023-02-08T15:39:33;21.48;;;11.18;;
74908;SDS011;63468;52.058;4.824;2023-02-08T15:42:05;20.13;;;11.55;;
74908;SDS011;63468;52.058;4.824;2023-02-08T15:44:31;21.90;;;12.23;;
74908;SDS011;63468;52.058;4.824;2023-02-08T15:47:00;21.88;;;11.90;;
74908;SDS011;63468;52.058;4.824;2023-02-08T15:49:29;20.58;;;11.85;;
74908;SDS011;63468;52.058;4.824;2023-02-08T15:52:00;23.52;;;11.80;;
74908;SDS011;63468;52.058;4.824;2023-02-08T15:54:26;22.75;;;11.15;;
74908;SDS011;63468;52.058;4.824;2023-02-08T15:57:08;20.45;;;11.98;;
74908;SDS011;63468;52.058;4.824;2023-02-08T15:59:43;20.90;;;11.05;;
74908;SDS011;63468;52.058;4.824;2023-02-08T16:02:23;22.08;;;10.48;;
74908;SDS011;63468;52.058;4.824;2023-02-08T16:04:51;22.05;;;11.07;;
74908;SDS011;63468;52.058;4.824;2023-02-08T16:09:55;23.50;;;11.30;;
74908;SDS011;63468;52.058;4.824;2023-02-08T16:12:22;19.83;;;11.02;;
74908;SDS011;63468;52.058;4.824;2023-02-08T16:14:48;21.60;;;11.02;;
74908;SDS011;63468;52.058;4.824;2023-02-08T16:20:19;21.83;;;11.75;;
74908;SDS011;63468;52.058;4.824;2023-02-08T16:22:57;27.17;;;10.88;;
74908;SDS011;63468;52.058;4.824;2023-02-08T16:25:43;21.73;;;9.98;;
74908;SDS011;63468;52.058;4.824;2023-02-08T16:28:29;16.95;;;9.88;;
74908;SDS011;63468;52.058;4.824;2023-02-08T16:30:57;21.30;;;11.27;;
74908;SDS011;63468;52.058;4.824;2023-02-08T16:33:24;21.25;;;10.80;;
74908;SDS011;63468;52.058;4.824;2023-02-08T16:35:50;22.85;;;9.88;;
74908;SDS011;63468;52.058;4.824;2023-02-08T16:38:20;22.10;;;11.43;;
74908;SDS011;63468;52.058;4.824;2023-02-08T16:40:47;21.25;;;10.23;;
74908;SDS011;63468;52.058;4.824;2023-02-08T16:43:16;22.60;;;11.32;;
74908;SDS011;63468;52.058;4.824;2023-02-08T16:46:33;18.25;;;11.13;;
74908;SDS011;63468;52.058;4.824;2023-02-08T16:48:41;23.33;;;11.32;;
74908;SDS011;63468;52.058;4.824;2023-02-08T16:51:14;23.88;;;13.13;;
74908;SDS011;63468;52.058;4.824;2023-02-08T16:53:42;23.38;;;11.90;;
74908;SDS011;63468;52.058;4.824;2023-02-08T16:56:08;24.73;;;12.15;;
74908;SDS011;63468;52.058;4.824;2023-02-08T16:58:34;24.60;;;11.93;;
74908;SDS011;63468;52.058;4.824;2023-02-08T17:00:59;22.85;;;11.70;;
74908;SDS011;63468;52.058;4.824;2023-02-08T17:03:25;23.88;;;12.88;;
74908;SDS011;63468;52.058;4.824;2023-02-08T17:05:50;27.20;;;13.15;;